sensor_id;sensor_type;location;lat;lon;timestamp;temperature;humidity
69084;SHT31;56185;48.526;9.044;2023-08-30T00:02:18;14.44;89.15
69084;SHT31;56185;48.526;9.044;2023-08-30T00:04:44;14.36;89.66
69084;SHT31;56185;48.526;9.044;2023-08-30T00:07:09;14.31;89.34
69084;SHT31;56185;48.526;9.044;2023-08-30T00:09:34;14.31;89.81
69084;SHT31;56185;48.526;9.044;2023-08-30T00:12:00;14.35;89.68
69084;SHT31;56185;48.526;9.044;2023-08-30T00:14:25;14.36;89.51
69084;SHT31;56185;48.526;9.044;2023-08-30T00:16:50;14.36;90.12
69084;SHT31;56185;48.526;9.044;2023-08-30T00:19:15;14.44;89.31
69084;SHT31;56185;48.526;9.044;2023-08-30T00:21:40;14.42;89.01
69084;SHT31;56185;48.526;9.044;2023-08-30T00:24:06;14.56;87.82
69084;SHT31;56185;48.526;9.044;2023-08-30T00:26:31;14.49;87.87
69084;SHT31;56185;48.526;9.044;2023-08-30T00:28:56;14.44;88.26
69084;SHT31;56185;48.526;9.044;2023-08-30T00:31:22;14.52;87.79
69084;SHT31;56185;48.526;9.044;2023-08-30T00:33:48;14.39;88.05
69084;SHT31;56185;48.526;9.044;2023-08-30T00:36:13;14.36;88.58
69084;SHT31;56185;48.526;9.044;2023-08-30T00:38:39;14.22;88.93
69084;SHT31;56185;48.526;9.044;2023-08-30T00:41:04;14.22;88.98
69084;SHT31;56185;48.526;9.044;2023-08-30T00:43:29;14.18;89.34
69084;SHT31;56185;48.526;9.044;2023-08-30T00:45:54;14.15;89.44
69084;SHT31;56185;48.526;9.044;2023-08-30T00:48:20;14.21;89.14
69084;SHT31;56185;48.526;9.044;2023-08-30T00:50:46;14.15;88.60
69084;SHT31;56185;48.526;9.044;2023-08-30T00:53:11;14.20;88.84
69084;SHT31;56185;48.526;9.044;2023-08-30T00:55:37;14.08;89.35
69084;SHT31;56185;48.526;9.044;2023-08-30T00:58:04;14.13;89.12
69084;SHT31;56185;48.526;9.044;2023-08-30T01:00:30;14.11;89.27
69084;SHT31;56185;48.526;9.044;2023-08-30T01:02:56;14.13;89.15
69084;SHT31;56185;48.526;9.044;2023-08-30T01:05:22;14.10;88.92
69084;SHT31;56185;48.526;9.044;2023-08-30T01:07:47;14.10;89.58
69084;SHT31;56185;48.526;9.044;2023-08-30T01:10:12;14.04;89.57
69084;SHT31;56185;48.526;9.044;2023-08-30T01:12:49;13.98;88.79
69084;SHT31;56185;48.526;9.044;2023-08-30T01:15:19;14.05;89.01
69084;SHT31;56185;48.526;9.044;2023-08-30T01:17:47;14.08;89.30
69084;SHT31;56185;48.526;9.044;2023-08-30T01:20:15;13.98;88.52
69084;SHT31;56185;48.526;9.044;2023-08-30T01:28:11;13.96;89.69
69084;SHT31;56185;48.526;9.044;2023-08-30T01:30:40;14.03;89.14
69084;SHT31;56185;48.526;9.044;2023-08-30T01:33:07;14.07;88.78
69084;SHT31;56185;48.526;9.044;2023-08-30T01:35:33;14.15;87.79
69084;SHT31;56185;48.526;9.044;2023-08-30T01:38:02;14.11;87.73
69084;SHT31;56185;48.526;9.044;2023-08-30T01:40:28;14.08;87.88
69084;SHT31;56185;48.526;9.044;2023-08-30T01:42:55;13.97;88.27
69084;SHT31;56185;48.526;9.044;2023-08-30T01:45:22;14.07;88.73
69084;SHT31;56185;48.526;9.044;2023-08-30T01:47:49;14.03;88.43
69084;SHT31;56185;48.526;9.044;2023-08-30T01:50:15;13.91;88.41
69084;SHT31;56185;48.526;9.044;2023-08-30T01:52:41;13.97;88.76
69084;SHT31;56185;48.526;9.044;2023-08-30T01:55:08;13.87;88.73
69084;SHT31;56185;48.526;9.044;2023-08-30T01:57:35;13.76;89.09
69084;SHT31;56185;48.526;9.044;2023-08-30T02:00:00;13.77;89.09
69084;SHT31;56185;48.526;9.044;2023-08-30T02:02:29;13.71;89.69
69084;SHT31;56185;48.526;9.044;2023-08-30T02:04:54;13.80;89.20
69084;SHT31;56185;48.526;9.044;2023-08-30T02:07:43;13.88;88.78
69084;SHT31;56185;48.526;9.044;2023-08-30T02:10:16;13.80;88.44
69084;SHT31;56185;48.526;9.044;2023-08-30T02:12:46;13.86;88.72
69084;SHT31;56185;48.526;9.044;2023-08-30T02:15:13;13.88;88.52
69084;SHT31;56185;48.526;9.044;2023-08-30T02:17:39;13.81;89.73
69084;SHT31;56185;48.526;9.044;2023-08-30T02:20:06;13.71;88.89
69084;SHT31;56185;48.526;9.044;2023-08-30T02:22:31;13.69;89.20
69084;SHT31;56185;48.526;9.044;2023-08-30T02:24:57;13.67;88.85
69084;SHT31;56185;48.526;9.044;2023-08-30T02:27:22;13.55;88.66
69084;SHT31;56185;48.526;9.044;2023-08-30T02:29:47;13.60;88.43
69084;SHT31;56185;48.526;9.044;2023-08-30T02:32:13;13.53;88.99
69084;SHT31;56185;48.526;9.044;2023-08-30T02:34:38;13.65;89.03
69084;SHT31;56185;48.526;9.044;2023-08-30T02:37:03;13.62;88.73
69084;SHT31;56185;48.526;9.044;2023-08-30T02:39:29;13.62;88.37
69084;SHT31;56185;48.526;9.044;2023-08-30T02:41:55;13.59;88.80
69084;SHT31;56185;48.526;9.044;2023-08-30T02:44:20;13.69;88.00
69084;SHT31;56185;48.526;9.044;2023-08-30T02:46:45;13.62;88.86
69084;SHT31;56185;48.526;9.044;2023-08-30T02:49:10;13.67;88.05
69084;SHT31;56185;48.526;9.044;2023-08-30T02:51:36;13.53;88.67
69084;SHT31;56185;48.526;9.044;2023-08-30T02:54:01;13.63;89.05
69084;SHT31;56185;48.526;9.044;2023-08-30T02:56:26;13.65;88.29
69084;SHT31;56185;48.526;9.044;2023-08-30T02:58:51;13.59;88.20
69084;SHT31;56185;48.526;9.044;2023-08-30T03:01:17;13.50;88.18
69084;SHT31;56185;48.526;9.044;2023-08-30T03:03:42;13.46;89.42
69084;SHT31;56185;48.526;9.044;2023-08-30T03:06:07;13.42;89.61
69084;SHT31;56185;48.526;9.044;2023-08-30T03:08:32;13.55;88.89
69084;SHT31;56185;48.526;9.044;2023-08-30T03:11:08;13.46;88.31
69084;SHT31;56185;48.526;9.044;2023-08-30T03:13:33;13.45;88.93
69084;SHT31;56185;48.526;9.044;2023-08-30T03:15:59;13.49;88.11
69084;SHT31;56185;48.526;9.044;2023-08-30T03:18:24;13.53;87.67
69084;SHT31;56185;48.526;9.044;2023-08-30T03:20:59;13.45;87.86
69084;SHT31;56185;48.526;9.044;2023-08-30T03:23:26;13.40;87.83
69084;SHT31;56185;48.526;9.044;2023-08-30T03:25:51;13.52;88.25
69084;SHT31;56185;48.526;9.044;2023-08-30T03:28:16;13.40;88.25
69084;SHT31;56185;48.526;9.044;2023-08-30T03:30:41;13.40;88.34
69084;SHT31;56185;48.526;9.044;2023-08-30T03:33:09;13.40;88.05
69084;SHT31;56185;48.526;9.044;2023-08-30T03:35:34;13.38;88.63
69084;SHT31;56185;48.526;9.044;2023-08-30T03:38:00;13.36;88.86
69084;SHT31;56185;48.526;9.044;2023-08-30T03:40:25;13.35;88.44
69084;SHT31;56185;48.526;9.044;2023-08-30T03:42:50;13.28;88.56
69084;SHT31;56185;48.526;9.044;2023-08-30T03:45:15;13.35;88.44
69084;SHT31;56185;48.526;9.044;2023-08-30T03:47:41;13.29;89.18
69084;SHT31;56185;48.526;9.044;2023-08-30T03:50:06;13.39;88.39
69084;SHT31;56185;48.526;9.044;2023-08-30T03:52:32;13.40;88.23
69084;SHT31;56185;48.526;9.044;2023-08-30T03:54:57;13.38;88.35
69084;SHT31;56185;48.526;9.044;2023-08-30T03:57:22;13.40;88.01
69084;SHT31;56185;48.526;9.044;2023-08-30T03:59:47;13.49;88.38
69084;SHT31;56185;48.526;9.044;2023-08-30T04:02:13;13.42;88.26
69084;SHT31;56185;48.526;9.044;2023-08-30T04:04:38;13.29;88.83
69084;SHT31;56185;48.526;9.044;2023-08-30T04:07:03;13.18;89.10
69084;SHT31;56185;48.526;9.044;2023-08-30T04:09:29;13.23;88.94
69084;SHT31;56185;48.526;9.044;2023-08-30T04:11:54;13.19;89.20
69084;SHT31;56185;48.526;9.044;2023-08-30T04:14:19;13.11;89.50
69084;SHT31;56185;48.526;9.044;2023-08-30T04:16:44;13.08;89.06
69084;SHT31;56185;48.526;9.044;2023-08-30T04:19:10;13.08;89.47
69084;SHT31;56185;48.526;9.044;2023-08-30T04:21:35;13.23;88.83
69084;SHT31;56185;48.526;9.044;2023-08-30T04:24:00;13.16;88.81
69084;SHT31;56185;48.526;9.044;2023-08-30T04:26:25;13.20;88.51
69084;SHT31;56185;48.526;9.044;2023-08-30T04:28:51;13.38;88.23
69084;SHT31;56185;48.526;9.044;2023-08-30T04:31:17;13.20;87.93
69084;SHT31;56185;48.526;9.044;2023-08-30T04:33:42;13.25;88.51
69084;SHT31;56185;48.526;9.044;2023-08-30T04:36:08;13.26;88.94
69084;SHT31;56185;48.526;9.044;2023-08-30T04:38:33;13.28;88.52
69084;SHT31;56185;48.526;9.044;2023-08-30T04:40:58;13.23;87.94
69084;SHT31;56185;48.526;9.044;2023-08-30T04:43:24;13.29;87.78
69084;SHT31;56185;48.526;9.044;2023-08-30T04:45:49;13.35;87.88
69084;SHT31;56185;48.526;9.044;2023-08-30T04:48:14;13.29;88.21
69084;SHT31;56185;48.526;9.044;2023-08-30T04:50:39;13.22;88.10
69084;SHT31;56185;48.526;9.044;2023-08-30T04:53:05;13.25;87.71
69084;SHT31;56185;48.526;9.044;2023-08-30T04:55:30;13.28;87.95
69084;SHT31;56185;48.526;9.044;2023-08-30T04:57:55;13.25;88.33
69084;SHT31;56185;48.526;9.044;2023-08-30T05:00:21;13.30;87.82
69084;SHT31;56185;48.526;9.044;2023-08-30T05:02:46;13.35;87.75
69084;SHT31;56185;48.526;9.044;2023-08-30T05:05:12;13.32;88.26
69084;SHT31;56185;48.526;9.044;2023-08-30T05:07:37;13.34;88.40
69084;SHT31;56185;48.526;9.044;2023-08-30T05:10:03;13.40;87.77
69084;SHT31;56185;48.526;9.044;2023-08-30T05:12:28;13.42;87.68
69084;SHT31;56185;48.526;9.044;2023-08-30T05:14:53;13.34;88.67
69084;SHT31;56185;48.526;9.044;2023-08-30T05:17:19;13.53;87.55
69084;SHT31;56185;48.526;9.044;2023-08-30T05:19:44;13.52;88.08
69084;SHT31;56185;48.526;9.044;2023-08-30T05:22:09;13.50;87.96
69084;SHT31;56185;48.526;9.044;2023-08-30T05:24:35;13.55;87.84
69084;SHT31;56185;48.526;9.044;2023-08-30T05:27:00;13.47;87.70
69084;SHT31;56185;48.526;9.044;2023-08-30T05:29:25;13.49;88.45
69084;SHT31;56185;48.526;9.044;2023-08-30T05:31:50;13.63;86.90
69084;SHT31;56185;48.526;9.044;2023-08-30T05:34:16;13.65;87.83
69084;SHT31;56185;48.526;9.044;2023-08-30T05:36:41;13.50;89.48
69084;SHT31;56185;48.526;9.044;2023-08-30T05:39:06;13.59;88.01
69084;SHT31;56185;48.526;9.044;2023-08-30T05:41:31;13.57;86.60
69084;SHT31;56185;48.526;9.044;2023-08-30T05:43:57;13.63;87.03
69084;SHT31;56185;48.526;9.044;2023-08-30T05:46:22;13.71;86.68
69084;SHT31;56185;48.526;9.044;2023-08-30T05:48:48;13.70;85.47
69084;SHT31;56185;48.526;9.044;2023-08-30T05:51:13;13.66;86.17
69084;SHT31;56185;48.526;9.044;2023-08-30T05:53:38;13.66;86.75
69084;SHT31;56185;48.526;9.044;2023-08-30T05:56:05;13.69;87.08
69084;SHT31;56185;48.526;9.044;2023-08-30T05:58:30;13.67;87.13
69084;SHT31;56185;48.526;9.044;2023-08-30T06:00:56;13.80;87.08
69084;SHT31;56185;48.526;9.044;2023-08-30T06:03:21;13.84;86.34
69084;SHT31;56185;48.526;9.044;2023-08-30T06:05:47;13.83;85.83
69084;SHT31;56185;48.526;9.044;2023-08-30T06:08:12;13.91;85.60
69084;SHT31;56185;48.526;9.044;2023-08-30T06:10:38;13.98;85.70
69084;SHT31;56185;48.526;9.044;2023-08-30T06:13:03;13.90;85.67
69084;SHT31;56185;48.526;9.044;2023-08-30T06:15:29;13.97;86.07
69084;SHT31;56185;48.526;9.044;2023-08-30T06:17:56;13.96;86.55
69084;SHT31;56185;48.526;9.044;2023-08-30T06:20:23;13.96;86.22
69084;SHT31;56185;48.526;9.044;2023-08-30T06:22:49;13.83;85.75
69084;SHT31;56185;48.526;9.044;2023-08-30T06:25:15;13.91;85.31
69084;SHT31;56185;48.526;9.044;2023-08-30T06:27:43;13.94;86.97
69084;SHT31;56185;48.526;9.044;2023-08-30T06:30:10;13.94;85.78
69084;SHT31;56185;48.526;9.044;2023-08-30T06:32:36;14.03;86.81
69084;SHT31;56185;48.526;9.044;2023-08-30T06:35:02;13.96;86.13
69084;SHT31;56185;48.526;9.044;2023-08-30T06:51:46;14.18;85.48
69084;SHT31;56185;48.526;9.044;2023-08-30T06:54:33;14.20;84.40
69084;SHT31;56185;48.526;9.044;2023-08-30T07:03:45;14.17;86.33
69084;SHT31;56185;48.526;9.044;2023-08-30T07:06:37;14.26;86.00
69084;SHT31;56185;48.526;9.044;2023-08-30T07:15:44;14.38;85.51
69084;SHT31;56185;48.526;9.044;2023-08-30T07:18:35;14.41;85.16
69084;SHT31;56185;48.526;9.044;2023-08-30T07:21:03;14.44;85.09
69084;SHT31;56185;48.526;9.044;2023-08-30T07:26:52;14.56;85.51
69084;SHT31;56185;48.526;9.044;2023-08-30T07:29:48;14.54;84.04
69084;SHT31;56185;48.526;9.044;2023-08-30T07:42:06;14.62;83.83
69084;SHT31;56185;48.526;9.044;2023-08-30T07:47:54;14.66;84.38
69084;SHT31;56185;48.526;9.044;2023-08-30T07:56:24;14.73;84.01
69084;SHT31;56185;48.526;9.044;2023-08-30T08:01:41;14.89;84.62
69084;SHT31;56185;48.526;9.044;2023-08-30T08:04:33;14.92;83.78
69084;SHT31;56185;48.526;9.044;2023-08-30T08:06:59;15.00;85.04
69084;SHT31;56185;48.526;9.044;2023-08-30T08:09:24;15.00;83.91
69084;SHT31;56185;48.526;9.044;2023-08-30T08:11:50;15.10;83.66
69084;SHT31;56185;48.526;9.044;2023-08-30T08:14:15;15.16;84.21
69084;SHT31;56185;48.526;9.044;2023-08-30T08:16:40;15.20;83.14
69084;SHT31;56185;48.526;9.044;2023-08-30T08:19:06;15.19;82.55
69084;SHT31;56185;48.526;9.044;2023-08-30T08:21:31;15.08;84.08
69084;SHT31;56185;48.526;9.044;2023-08-30T08:23:56;15.17;82.31
69084;SHT31;56185;48.526;9.044;2023-08-30T08:26:31;15.27;83.27
69084;SHT31;56185;48.526;9.044;2023-08-30T08:28:56;15.30;84.27
69084;SHT31;56185;48.526;9.044;2023-08-30T08:31:22;15.45;83.94
69084;SHT31;56185;48.526;9.044;2023-08-30T08:33:50;15.44;82.83
69084;SHT31;56185;48.526;9.044;2023-08-30T08:36:16;15.44;81.86
69084;SHT31;56185;48.526;9.044;2023-08-30T08:38:41;15.51;83.07
69084;SHT31;56185;48.526;9.044;2023-08-30T08:41:06;15.59;82.65
69084;SHT31;56185;48.526;9.044;2023-08-30T08:43:33;15.74;82.49
69084;SHT31;56185;48.526;9.044;2023-08-30T08:46:02;15.78;82.36
69084;SHT31;56185;48.526;9.044;2023-08-30T08:48:29;15.91;80.70
69084;SHT31;56185;48.526;9.044;2023-08-30T08:50:59;15.86;80.53
69084;SHT31;56185;48.526;9.044;2023-08-30T08:53:24;15.99;80.25
69084;SHT31;56185;48.526;9.044;2023-08-30T08:55:51;16.08;80.13
69084;SHT31;56185;48.526;9.044;2023-08-30T08:58:17;16.09;80.14
69084;SHT31;56185;48.526;9.044;2023-08-30T09:00:42;16.06;80.50
69084;SHT31;56185;48.526;9.044;2023-08-30T09:03:09;16.14;79.37
69084;SHT31;56185;48.526;9.044;2023-08-30T09:05:37;16.14;79.39
69084;SHT31;56185;48.526;9.044;2023-08-30T09:08:02;16.26;80.01
69084;SHT31;56185;48.526;9.044;2023-08-30T09:10:27;16.30;80.14
69084;SHT31;56185;48.526;9.044;2023-08-30T09:12:53;16.29;79.01
69084;SHT31;56185;48.526;9.044;2023-08-30T09:15:18;16.30;79.03
69084;SHT31;56185;48.526;9.044;2023-08-30T09:17:43;16.37;79.46
69084;SHT31;56185;48.526;9.044;2023-08-30T09:20:12;16.43;78.83
69084;SHT31;56185;48.526;9.044;2023-08-30T09:22:42;16.50;79.42
69084;SHT31;56185;48.526;9.044;2023-08-30T09:25:09;16.60;80.02
69084;SHT31;56185;48.526;9.044;2023-08-30T09:27:35;16.54;79.50
69084;SHT31;56185;48.526;9.044;2023-08-30T09:30:00;16.70;78.79
69084;SHT31;56185;48.526;9.044;2023-08-30T09:32:26;16.82;79.05
69084;SHT31;56185;48.526;9.044;2023-08-30T09:34:51;16.94;79.40
69084;SHT31;56185;48.526;9.044;2023-08-30T09:37:23;17.05;77.31
69084;SHT31;56185;48.526;9.044;2023-08-30T09:39:58;17.07;77.22
69084;SHT31;56185;48.526;9.044;2023-08-30T09:42:23;17.12;77.04
69084;SHT31;56185;48.526;9.044;2023-08-30T09:44:49;17.19;76.71
69084;SHT31;56185;48.526;9.044;2023-08-30T09:47:14;17.33;78.23
69084;SHT31;56185;48.526;9.044;2023-08-30T09:49:44;17.36;77.97
69084;SHT31;56185;48.526;9.044;2023-08-30T09:52:10;17.40;76.77
69084;SHT31;56185;48.526;9.044;2023-08-30T09:54:37;17.32;75.34
69084;SHT31;56185;48.526;9.044;2023-08-30T09:57:03;17.43;75.02
69084;SHT31;56185;48.526;9.044;2023-08-30T09:59:29;17.40;75.98
69084;SHT31;56185;48.526;9.044;2023-08-30T10:01:57;17.49;76.21
69084;SHT31;56185;48.526;9.044;2023-08-30T10:04:22;17.47;74.62
69084;SHT31;56185;48.526;9.044;2023-08-30T10:06:50;17.50;75.17
69084;SHT31;56185;48.526;9.044;2023-08-30T10:09:15;17.54;75.74
69084;SHT31;56185;48.526;9.044;2023-08-30T10:11:41;17.59;74.09
69084;SHT31;56185;48.526;9.044;2023-08-30T10:14:07;17.65;74.96
69084;SHT31;56185;48.526;9.044;2023-08-30T10:16:46;17.57;75.16
69084;SHT31;56185;48.526;9.044;2023-08-30T10:19:26;17.59;73.79
69084;SHT31;56185;48.526;9.044;2023-08-30T10:22:02;17.69;72.22
69084;SHT31;56185;48.526;9.044;2023-08-30T10:24:28;17.71;73.85
69084;SHT31;56185;48.526;9.044;2023-08-30T10:26:55;17.83;73.67
69084;SHT31;56185;48.526;9.044;2023-08-30T10:29:21;17.91;71.42
69084;SHT31;56185;48.526;9.044;2023-08-30T10:31:46;17.97;72.16
69084;SHT31;56185;48.526;9.044;2023-08-30T10:34:15;18.08;71.81
69084;SHT31;56185;48.526;9.044;2023-08-30T10:36:42;18.15;71.55
69084;SHT31;56185;48.526;9.044;2023-08-30T10:39:15;18.20;68.40
69084;SHT31;56185;48.526;9.044;2023-08-30T10:41:57;18.39;69.93
69084;SHT31;56185;48.526;9.044;2023-08-30T10:44:32;18.48;68.84
69084;SHT31;56185;48.526;9.044;2023-08-30T10:49:53;18.63;69.35
69084;SHT31;56185;48.526;9.044;2023-08-30T10:52:21;18.79;69.66
69084;SHT31;56185;48.526;9.044;2023-08-30T10:54:46;18.90;67.98
69084;SHT31;56185;48.526;9.044;2023-08-30T10:57:18;19.04;67.85
69084;SHT31;56185;48.526;9.044;2023-08-30T11:02:46;19.09;65.90
69084;SHT31;56185;48.526;9.044;2023-08-30T11:05:12;19.21;65.83
69084;SHT31;56185;48.526;9.044;2023-08-30T11:07:41;19.27;64.47
69084;SHT31;56185;48.526;9.044;2023-08-30T11:10:06;19.32;67.19
69084;SHT31;56185;48.526;9.044;2023-08-30T11:12:32;19.57;66.69
69084;SHT31;56185;48.526;9.044;2023-08-30T11:14:58;19.55;64.32
69084;SHT31;56185;48.526;9.044;2023-08-30T11:17:26;19.55;62.92
69084;SHT31;56185;48.526;9.044;2023-08-30T11:20:05;19.43;63.07
69084;SHT31;56185;48.526;9.044;2023-08-30T11:22:36;19.34;66.06
69084;SHT31;56185;48.526;9.044;2023-08-30T11:25:02;19.41;65.33
69084;SHT31;56185;48.526;9.044;2023-08-30T11:27:27;19.31;67.32
69084;SHT31;56185;48.526;9.044;2023-08-30T11:29:52;19.57;65.87
69084;SHT31;56185;48.526;9.044;2023-08-30T11:32:19;19.76;61.60
69084;SHT31;56185;48.526;9.044;2023-08-30T11:34:55;19.78;61.87
69084;SHT31;56185;48.526;9.044;2023-08-30T11:37:20;19.81;62.69
69084;SHT31;56185;48.526;9.044;2023-08-30T11:39:45;19.92;63.62
69084;SHT31;56185;48.526;9.044;2023-08-30T11:42:12;19.86;61.09
69084;SHT31;56185;48.526;9.044;2023-08-30T11:44:38;19.85;62.49
69084;SHT31;56185;48.526;9.044;2023-08-30T11:47:03;19.88;64.54
69084;SHT31;56185;48.526;9.044;2023-08-30T11:49:29;19.98;62.86
69084;SHT31;56185;48.526;9.044;2023-08-30T11:51:55;20.10;63.74
69084;SHT31;56185;48.526;9.044;2023-08-30T11:54:21;20.06;61.30
69084;SHT31;56185;48.526;9.044;2023-08-30T11:56:47;20.08;61.27
69084;SHT31;56185;48.526;9.044;2023-08-30T11:59:21;20.23;60.24
69084;SHT31;56185;48.526;9.044;2023-08-30T12:01:53;20.25;61.75
69084;SHT31;56185;48.526;9.044;2023-08-30T12:04:19;20.34;62.80
69084;SHT31;56185;48.526;9.044;2023-08-30T12:06:51;20.39;62.89
69084;SHT31;56185;48.526;9.044;2023-08-30T12:09:17;20.27;60.64
69084;SHT31;56185;48.526;9.044;2023-08-30T12:11:42;20.32;61.89
69084;SHT31;56185;48.526;9.044;2023-08-30T12:14:07;20.25;61.16
69084;SHT31;56185;48.526;9.044;2023-08-30T12:16:33;20.20;60.15
69084;SHT31;56185;48.526;9.044;2023-08-30T12:19:07;20.09;62.72
69084;SHT31;56185;48.526;9.044;2023-08-30T12:21:42;20.05;62.92
69084;SHT31;56185;48.526;9.044;2023-08-30T12:24:07;19.99;60.91
69084;SHT31;56185;48.526;9.044;2023-08-30T12:26:33;19.99;59.39
69084;SHT31;56185;48.526;9.044;2023-08-30T12:28:58;20.02;62.25
69084;SHT31;56185;48.526;9.044;2023-08-30T12:31:23;20.08;61.30
69084;SHT31;56185;48.526;9.044;2023-08-30T12:33:48;20.06;61.22
69084;SHT31;56185;48.526;9.044;2023-08-30T12:36:13;20.12;60.47
69084;SHT31;56185;48.526;9.044;2023-08-30T12:38:39;20.23;61.40
69084;SHT31;56185;48.526;9.044;2023-08-30T12:41:04;20.46;60.93
69084;SHT31;56185;48.526;9.044;2023-08-30T12:43:29;20.43;60.26
69084;SHT31;56185;48.526;9.044;2023-08-30T12:45:54;20.57;60.21
69084;SHT31;56185;48.526;9.044;2023-08-30T12:48:20;20.58;60.37
69084;SHT31;56185;48.526;9.044;2023-08-30T12:50:46;20.53;57.77
69084;SHT31;56185;48.526;9.044;2023-08-30T12:53:12;20.61;59.17
69084;SHT31;56185;48.526;9.044;2023-08-30T12:55:37;20.64;60.08
69084;SHT31;56185;48.526;9.044;2023-08-30T12:58:02;20.53;59.29
69084;SHT31;56185;48.526;9.044;2023-08-30T13:00:28;20.41;61.14
69084;SHT31;56185;48.526;9.044;2023-08-30T13:02:54;20.36;57.28
69084;SHT31;56185;48.526;9.044;2023-08-30T13:05:20;20.23;60.44
69084;SHT31;56185;48.526;9.044;2023-08-30T13:07:45;19.93;58.85
69084;SHT31;56185;48.526;9.044;2023-08-30T13:10:11;19.85;60.78
69084;SHT31;56185;48.526;9.044;2023-08-30T13:12:36;19.90;60.78
69084;SHT31;56185;48.526;9.044;2023-08-30T13:15:03;20.00;62.08
69084;SHT31;56185;48.526;9.044;2023-08-30T13:17:28;19.95;64.00
69084;SHT31;56185;48.526;9.044;2023-08-30T13:19:53;19.88;62.70
69084;SHT31;56185;48.526;9.044;2023-08-30T13:22:19;19.62;64.83
69084;SHT31;56185;48.526;9.044;2023-08-30T13:24:44;19.46;64.20
69084;SHT31;56185;48.526;9.044;2023-08-30T13:27:10;19.57;65.81
69084;SHT31;56185;48.526;9.044;2023-08-30T13:29:35;19.55;63.72
69084;SHT31;56185;48.526;9.044;2023-08-30T13:32:01;19.72;63.96
69084;SHT31;56185;48.526;9.044;2023-08-30T13:34:26;20.19;60.96
69084;SHT31;56185;48.526;9.044;2023-08-30T13:36:51;20.40;60.83
69084;SHT31;56185;48.526;9.044;2023-08-30T13:39:16;20.71;59.48
69084;SHT31;56185;48.526;9.044;2023-08-30T13:41:42;20.70;60.47
69084;SHT31;56185;48.526;9.044;2023-08-30T13:44:07;20.68;60.34
69084;SHT31;56185;48.526;9.044;2023-08-30T13:46:33;20.68;58.72
69084;SHT31;56185;48.526;9.044;2023-08-30T13:48:58;20.58;60.21
69084;SHT31;56185;48.526;9.044;2023-08-30T13:51:25;20.61;59.41
69084;SHT31;56185;48.526;9.044;2023-08-30T13:53:51;20.48;58.27
69084;SHT31;56185;48.526;9.044;2023-08-30T13:56:16;20.30;58.79
69084;SHT31;56185;48.526;9.044;2023-08-30T13:58:41;20.44;59.51
69084;SHT31;56185;48.526;9.044;2023-08-30T14:01:07;20.43;60.24
69084;SHT31;56185;48.526;9.044;2023-08-30T14:03:32;20.37;59.37
69084;SHT31;56185;48.526;9.044;2023-08-30T14:05:58;20.33;60.45
69084;SHT31;56185;48.526;9.044;2023-08-30T14:08:23;20.33;59.94
69084;SHT31;56185;48.526;9.044;2023-08-30T14:10:48;20.29;60.75
69084;SHT31;56185;48.526;9.044;2023-08-30T14:13:13;20.26;60.85
69084;SHT31;56185;48.526;9.044;2023-08-30T14:15:40;20.19;61.64
69084;SHT31;56185;48.526;9.044;2023-08-30T14:18:06;20.15;61.71
69084;SHT31;56185;48.526;9.044;2023-08-30T14:20:31;20.13;61.17
69084;SHT31;56185;48.526;9.044;2023-08-30T14:22:56;20.32;63.42
69084;SHT31;56185;48.526;9.044;2023-08-30T14:25:21;20.60;62.31
69084;SHT31;56185;48.526;9.044;2023-08-30T14:27:47;20.94;60.08
69084;SHT31;56185;48.526;9.044;2023-08-30T14:30:12;21.16;57.91
69084;SHT31;56185;48.526;9.044;2023-08-30T14:32:37;21.15;58.94
69084;SHT31;56185;48.526;9.044;2023-08-30T14:35:03;21.09;59.91
69084;SHT31;56185;48.526;9.044;2023-08-30T14:37:29;20.95;59.37
69084;SHT31;56185;48.526;9.044;2023-08-30T14:39:54;20.91;59.21
69084;SHT31;56185;48.526;9.044;2023-08-30T14:42:20;20.75;59.58
69084;SHT31;56185;48.526;9.044;2023-08-30T14:44:49;20.73;59.39
69084;SHT31;56185;48.526;9.044;2023-08-30T14:47:14;20.74;59.15
69084;SHT31;56185;48.526;9.044;2023-08-30T14:49:39;20.57;61.11
69084;SHT31;56185;48.526;9.044;2023-08-30T14:52:04;20.48;62.17
69084;SHT31;56185;48.526;9.044;2023-08-30T14:54:30;20.46;61.27
69084;SHT31;56185;48.526;9.044;2023-08-30T14:56:55;20.46;65.16
69084;SHT31;56185;48.526;9.044;2023-08-30T14:59:20;20.39;65.86
69084;SHT31;56185;48.526;9.044;2023-08-30T15:01:45;20.33;63.58
69084;SHT31;56185;48.526;9.044;2023-08-30T15:04:11;20.29;64.32
69084;SHT31;56185;48.526;9.044;2023-08-30T15:06:36;20.26;65.71
69084;SHT31;56185;48.526;9.044;2023-08-30T15:09:01;20.39;64.61
69084;SHT31;56185;48.526;9.044;2023-08-30T15:11:26;20.56;63.98
69084;SHT31;56185;48.526;9.044;2023-08-30T15:13:52;20.53;64.42
69084;SHT31;56185;48.526;9.044;2023-08-30T15:16:17;20.58;64.68
69084;SHT31;56185;48.526;9.044;2023-08-30T15:18:42;20.48;65.86
69084;SHT31;56185;48.526;9.044;2023-08-30T15:21:07;20.57;65.99
69084;SHT31;56185;48.526;9.044;2023-08-30T15:23:33;20.63;64.97
69084;SHT31;56185;48.526;9.044;2023-08-30T15:25:58;20.96;62.92
69084;SHT31;56185;48.526;9.044;2023-08-30T15:28:23;21.02;63.37
69084;SHT31;56185;48.526;9.044;2023-08-30T15:30:49;20.94;64.15
69084;SHT31;56185;48.526;9.044;2023-08-30T15:33:14;20.75;64.83
69084;SHT31;56185;48.526;9.044;2023-08-30T15:35:40;20.68;63.81
69084;SHT31;56185;48.526;9.044;2023-08-30T15:38:06;20.71;64.92
69084;SHT31;56185;48.526;9.044;2023-08-30T15:40:32;20.70;64.07
69084;SHT31;56185;48.526;9.044;2023-08-30T15:42:57;20.70;61.25
69084;SHT31;56185;48.526;9.044;2023-08-30T15:45:22;20.60;62.17
69084;SHT31;56185;48.526;9.044;2023-08-30T15:47:47;20.61;62.81
69084;SHT31;56185;48.526;9.044;2023-08-30T15:50:13;20.57;61.60
69084;SHT31;56185;48.526;9.044;2023-08-30T15:52:38;20.54;63.84
69084;SHT31;56185;48.526;9.044;2023-08-30T15:55:03;20.70;62.19
69084;SHT31;56185;48.526;9.044;2023-08-30T15:57:29;20.66;60.90
69084;SHT31;56185;48.526;9.044;2023-08-30T15:59:54;20.70;61.62
69084;SHT31;56185;48.526;9.044;2023-08-30T16:02:19;20.70;61.56
69084;SHT31;56185;48.526;9.044;2023-08-30T16:04:44;20.73;60.89
69084;SHT31;56185;48.526;9.044;2023-08-30T16:07:10;20.56;60.89
69084;SHT31;56185;48.526;9.044;2023-08-30T16:09:35;20.61;61.88
69084;SHT31;56185;48.526;9.044;2023-08-30T16:12:00;20.53;59.59
69084;SHT31;56185;48.526;9.044;2023-08-30T16:14:25;20.61;59.67
69084;SHT31;56185;48.526;9.044;2023-08-30T16:16:51;20.66;60.89
69084;SHT31;56185;48.526;9.044;2023-08-30T16:19:16;20.67;57.97
69084;SHT31;56185;48.526;9.044;2023-08-30T16:21:41;20.57;58.22
69084;SHT31;56185;48.526;9.044;2023-08-30T16:24:06;20.57;58.77
69084;SHT31;56185;48.526;9.044;2023-08-30T16:26:32;20.43;57.51
69084;SHT31;56185;48.526;9.044;2023-08-30T16:28:57;20.44;58.48
69084;SHT31;56185;48.526;9.044;2023-08-30T16:31:28;20.40;56.78